sensor_id;sensor_type;location;lat;lon;timestamp;pressure;altitude;pressure_sealevel;temperature;humidity
76132;BME280;64877;50.994;13.650;2023-02-08T00:01:34;102170.69;;;-5.38;75.92
76132;BME280;64877;50.994;13.650;2023-02-08T00:03:59;102171.59;;;-5.37;76.28
76132;BME280;64877;50.994;13.650;2023-02-08T00:06:24;102170.69;;;-5.38;75.68
76132;BME280;64877;50.994;13.650;2023-02-08T00:08:50;102177.50;;;-5.46;76.15
76132;BME280;64877;50.994;13.650;2023-02-08T00:11:15;102170.28;;;-5.53;76.65
76132;BME280;64877;50.994;13.650;2023-02-08T00:13:41;102170.25;;;-5.55;76.03
76132;BME280;64877;50.994;13.650;2023-02-08T00:16:07;102176.63;;;-5.47;75.38
76132;BME280;64877;50.994;13.650;2023-02-08T00:18:32;102169.13;;;-5.63;76.35
76132;BME280;64877;50.994;13.650;2023-02-08T00:20:58;102172.69;;;-5.61;75.26
76132;BME280;64877;50.994;13.650;2023-02-08T00:23:24;102171.88;;;-5.88;76.38
76132;BME280;64877;50.994;13.650;2023-02-08T00:25:50;102182.34;;;-5.90;77.95
76132;BME280;64877;50.994;13.650;2023-02-08T00:28:19;102170.66;;;-5.71;76.87
76132;BME280;64877;50.994;13.650;2023-02-08T00:30:44;102170.06;;;-5.61;76.40
76132;BME280;64877;50.994;13.650;2023-02-08T00:33:10;102173.56;;;-5.62;75.14
76132;BME280;64877;50.994;13.650;2023-02-08T00:35:36;102172.69;;;-5.61;76.10
76132;BME280;64877;50.994;13.650;2023-02-08T00:38:02;102175.19;;;-5.65;75.74
76132;BME280;64877;50.994;13.650;2023-02-08T00:40:27;102166.78;;;-5.82;76.62
76132;BME280;64877;50.994;13.650;2023-02-08T00:42:52;102175.22;;;-5.95;76.84
76132;BME280;64877;50.994;13.650;2023-02-08T00:45:18;102175.28;;;-5.92;76.07
76132;BME280;64877;50.994;13.650;2023-02-08T00:47:43;102176.41;;;-5.83;76.42
76132;BME280;64877;50.994;13.650;2023-02-08T00:50:09;102168.38;;;-5.87;76.27
76132;BME280;64877;50.994;13.650;2023-02-08T00:52:35;102171.53;;;-5.70;75.76
76132;BME280;64877;50.994;13.650;2023-02-08T00:55:01;102161.09;;;-5.97;75.70
76132;BME280;64877;50.994;13.650;2023-02-08T00:57:26;102155.66;;;-6.04;76.72
76132;BME280;64877;50.994;13.650;2023-02-08T00:59:52;102154.06;;;-5.99;76.48
76132;BME280;64877;50.994;13.650;2023-02-08T01:02:17;102150.50;;;-6.01;75.03
76132;BME280;64877;50.994;13.650;2023-02-08T01:04:42;102149.28;;;-6.12;76.29
76132;BME280;64877;50.994;13.650;2023-02-08T01:07:08;102149.41;;;-6.07;75.95
76132;BME280;64877;50.994;13.650;2023-02-08T01:09:34;102146.56;;;-6.15;76.42
76132;BME280;64877;50.994;13.650;2023-02-08T01:12:00;102145.69;;;-6.15;77.31
76132;BME280;64877;50.994;13.650;2023-02-08T01:14:25;102144.97;;;-6.10;77.21
76132;BME280;64877;50.994;13.650;2023-02-08T01:16:51;102146.09;;;-6.02;77.08
76132;BME280;64877;50.994;13.650;2023-02-08T01:19:16;102141.94;;;-5.93;75.79
76132;BME280;64877;50.994;13.650;2023-02-08T01:21:42;102147.44;;;-6.16;76.02
76132;BME280;64877;50.994;13.650;2023-02-08T01:24:08;102141.47;;;-6.10;77.24
76132;BME280;64877;50.994;13.650;2023-02-08T01:26:34;102141.50;;;-6.09;76.15
76132;BME280;64877;50.994;13.650;2023-02-08T01:29:00;102143.66;;;-5.95;75.05
76132;BME280;64877;50.994;13.650;2023-02-08T01:31:34;102132.13;;;-5.99;74.68
76132;BME280;64877;50.994;13.650;2023-02-08T01:34:01;102134.63;;;-6.04;74.43
76132;BME280;64877;50.994;13.650;2023-02-08T01:36:28;102142.91;;;-6.20;76.07
76132;BME280;64877;50.994;13.650;2023-02-08T01:38:54;102133.38;;;-6.16;75.56
76132;BME280;64877;50.994;13.650;2023-02-08T01:41:22;102136.84;;;-6.17;76.06
76132;BME280;64877;50.994;13.650;2023-02-08T01:46:22;102136.94;;;-6.14;76.25
76132;BME280;64877;50.994;13.650;2023-02-08T01:48:47;102134.13;;;-6.20;76.17
76132;BME280;64877;50.994;13.650;2023-02-08T01:51:17;102127.84;;;-6.26;76.51
76132;BME280;64877;50.994;13.650;2023-02-08T01:53:45;102122.31;;;-6.35;76.03
76132;BME280;64877;50.994;13.650;2023-02-08T01:56:24;102121.78;;;-6.23;76.43
76132;BME280;64877;50.994;13.650;2023-02-08T01:58:54;102117.91;;;-6.36;75.94
76132;BME280;64877;50.994;13.650;2023-02-08T02:01:22;102117.81;;;-6.37;75.86
76132;BME280;64877;50.994;13.650;2023-02-08T02:03:49;102121.34;;;-6.37;75.93
76132;BME280;64877;50.994;13.650;2023-02-08T02:06:17;102122.38;;;-6.32;75.61
76132;BME280;64877;50.994;13.650;2023-02-08T02:08:49;102122.19;;;-6.38;75.90
76132;BME280;64877;50.994;13.650;2023-02-08T02:11:17;102118.94;;;-6.31;75.53
76132;BME280;64877;50.994;13.650;2023-02-08T02:13:42;102117.06;;;-6.33;75.29
76132;BME280;64877;50.994;13.650;2023-02-08T02:16:08;102115.97;;;-6.41;75.70
76132;BME280;64877;50.994;13.650;2023-02-08T02:18:33;102115.69;;;-6.51;76.27
76132;BME280;64877;50.994;13.650;2023-02-08T02:21:12;102116.50;;;-6.52;76.16
76132;BME280;64877;50.994;13.650;2023-02-08T02:26:25;102111.53;;;-6.42;75.08
76132;BME280;64877;50.994;13.650;2023-02-08T02:32:48;102114.78;;;-6.51;76.65
76132;BME280;64877;50.994;13.650;2023-02-08T02:40:35;102106.13;;;-6.75;76.01
76132;BME280;64877;50.994;13.650;2023-02-08T02:54:22;102114.97;;;-6.72;76.42
76132;BME280;64877;50.994;13.650;2023-02-08T02:56:51;102109.44;;;-6.81;76.03
76132;BME280;64877;50.994;13.650;2023-02-08T02:59:18;102115.59;;;-6.81;76.10
76132;BME280;64877;50.994;13.650;2023-02-08T03:01:45;102104.28;;;-6.78;76.62
76132;BME280;64877;50.994;13.650;2023-02-08T03:04:17;102103.44;;;-6.77;76.89
76132;BME280;64877;50.994;13.650;2023-02-08T03:14:42;102104.94;;;-6.57;75.10
76132;BME280;64877;50.994;13.650;2023-02-08T03:17:22;102108.84;;;-6.45;75.00
76132;BME280;64877;50.994;13.650;2023-02-08T03:19:59;102107.88;;;-6.47;74.46
76132;BME280;64877;50.994;13.650;2023-02-08T03:22:51;102105.06;;;-6.54;74.40
76132;BME280;64877;50.994;13.650;2023-02-08T03:25:27;102115.78;;;-6.74;74.46
76132;BME280;64877;50.994;13.650;2023-02-08T03:28:04;102115.75;;;-6.76;75.80
76132;BME280;64877;50.994;13.650;2023-02-08T03:33:12;102119.28;;;-6.74;75.22
76132;BME280;64877;50.994;13.650;2023-02-08T03:36:12;102124.59;;;-6.72;75.88
76132;BME280;64877;50.994;13.650;2023-02-08T03:38:40;102129.91;;;-6.96;75.95
76132;BME280;64877;50.994;13.650;2023-02-08T03:41:12;102130.88;;;-6.94;75.78
76132;BME280;64877;50.994;13.650;2023-02-08T03:43:42;102128.34;;;-6.91;76.34
76132;BME280;64877;50.994;13.650;2023-02-08T03:46:20;102140.66;;;-6.90;76.01
76132;BME280;64877;50.994;13.650;2023-02-08T03:48:53;102136.88;;;-6.71;75.58
76132;BME280;64877;50.994;13.650;2023-02-08T03:51:21;102139.84;;;-6.88;75.42
76132;BME280;64877;50.994;13.650;2023-02-08T03:53:50;102141.03;;;-6.78;74.13
76132;BME280;64877;50.994;13.650;2023-02-08T03:56:27;102152.72;;;-6.95;75.30
76132;BME280;64877;50.994;13.650;2023-02-08T03:58:59;102153.50;;;-6.98;74.46
76132;BME280;64877;50.994;13.650;2023-02-08T04:01:32;102145.78;;;-6.93;75.89
76132;BME280;64877;50.994;13.650;2023-02-08T04:04:00;102151.97;;;-6.91;76.22
76132;BME280;64877;50.994;13.650;2023-02-08T04:06:26;102145.97;;;-6.87;75.93
76132;BME280;64877;50.994;13.650;2023-02-08T04:08:52;102155.38;;;-6.95;75.45
76132;BME280;64877;50.994;13.650;2023-02-08T04:11:17;102154.88;;;-7.09;75.80
76132;BME280;64877;50.994;13.650;2023-02-08T04:13:43;102157.50;;;-7.09;76.24
76132;BME280;64877;50.994;13.650;2023-02-08T04:16:12;102152.97;;;-7.13;76.01
76132;BME280;64877;50.994;13.650;2023-02-08T04:18:37;102155.38;;;-7.21;75.89
76132;BME280;64877;50.994;13.650;2023-02-08T04:21:04;102162.28;;;-7.23;75.87
76132;BME280;64877;50.994;13.650;2023-02-08T04:23:29;102161.66;;;-7.16;75.22
76132;BME280;64877;50.994;13.650;2023-02-08T04:25:54;102155.88;;;-7.06;76.11
76132;BME280;64877;50.994;13.650;2023-02-08T04:28:20;102151.44;;;-7.07;75.93
76132;BME280;64877;50.994;13.650;2023-02-08T04:30:45;102151.09;;;-7.17;75.80
76132;BME280;64877;50.994;13.650;2023-02-08T04:33:11;102157.13;;;-7.20;76.16
76132;BME280;64877;50.994;13.650;2023-02-08T04:35:39;102156.09;;;-7.25;76.00
76132;BME280;64877;50.994;13.650;2023-02-08T04:38:05;102150.50;;;-7.34;75.77
76132;BME280;64877;50.994;13.650;2023-02-08T04:40:31;102151.34;;;-7.35;76.61
76132;BME280;64877;50.994;13.650;2023-02-08T04:42:56;102151.34;;;-7.35;75.92
76132;BME280;64877;50.994;13.650;2023-02-08T04:45:21;102146.09;;;-7.35;75.44
76132;BME280;64877;50.994;13.650;2023-02-08T04:47:47;102156.28;;;-7.44;76.79
76132;BME280;64877;50.994;13.650;2023-02-08T04:50:13;102142.84;;;-7.28;76.02
76132;BME280;64877;50.994;13.650;2023-02-08T04:52:38;102144.53;;;-7.30;75.53
76132;BME280;64877;50.994;13.650;2023-02-08T04:55:04;102141.47;;;-7.17;75.36
76132;BME280;64877;50.994;13.650;2023-02-08T04:57:29;102144.53;;;-7.05;75.47
76132;BME280;64877;50.994;13.650;2023-02-08T04:59:55;102142.31;;;-6.92;75.39
76132;BME280;64877;50.994;13.650;2023-02-08T05:02:20;102138.44;;;-7.04;75.02
76132;BME280;64877;50.994;13.650;2023-02-08T05:04:46;102138.31;;;-7.07;74.99
76132;BME280;64877;50.994;13.650;2023-02-08T05:07:11;102130.84;;;-6.96;75.16
76132;BME280;64877;50.994;13.650;2023-02-08T05:09:36;102121.41;;;-6.89;74.09
76132;BME280;64877;50.994;13.650;2023-02-08T05:12:02;102126.75;;;-6.86;74.30
76132;BME280;64877;50.994;13.650;2023-02-08T05:14:27;102135.66;;;-7.08;75.94
76132;BME280;64877;50.994;13.650;2023-02-08T05:16:52;102136.47;;;-7.11;75.93
76132;BME280;64877;50.994;13.650;2023-02-08T05:19:18;102134.38;;;-7.21;76.91
76132;BME280;64877;50.994;13.650;2023-02-08T05:21:43;102135.44;;;-7.14;75.26
76132;BME280;64877;50.994;13.650;2023-02-08T05:24:08;102136.03;;;-7.23;76.12
76132;BME280;64877;50.994;13.650;2023-02-08T05:26:37;102139.50;;;-7.24;75.50
76132;BME280;64877;50.994;13.650;2023-02-08T05:29:03;102136.53;;;-7.08;75.21
76132;BME280;64877;50.994;13.650;2023-02-08T05:31:28;102131.09;;;-7.14;74.47
76132;BME280;64877;50.994;13.650;2023-02-08T05:33:54;102137.13;;;-7.16;75.12
76132;BME280;64877;50.994;13.650;2023-02-08T05:36:20;102139.44;;;-7.25;75.00
76132;BME280;64877;50.994;13.650;2023-02-08T05:38:45;102139.91;;;-7.12;74.89
76132;BME280;64877;50.994;13.650;2023-02-08T05:41:11;102129.84;;;-6.99;74.46
76132;BME280;64877;50.994;13.650;2023-02-08T05:43:36;102137.28;;;-7.12;75.42
76132;BME280;64877;50.994;13.650;2023-02-08T05:46:02;102142.44;;;-7.15;75.45
76132;BME280;64877;50.994;13.650;2023-02-08T05:48:29;102149.78;;;-7.30;75.52
76132;BME280;64877;50.994;13.650;2023-02-08T05:50:55;102153.00;;;-7.37;76.14
76132;BME280;64877;50.994;13.650;2023-02-08T05:53:20;102148.81;;;-7.32;75.12
76132;BME280;64877;50.994;13.650;2023-02-08T05:55:46;102154.78;;;-7.36;76.60
76132;BME280;64877;50.994;13.650;2023-02-08T05:58:14;102150.19;;;-7.18;74.93
76132;BME280;64877;50.994;13.650;2023-02-08T06:00:40;102144.06;;;-7.18;75.04
76132;BME280;64877;50.994;13.650;2023-02-08T06:03:06;102154.75;;;-7.38;75.76
76132;BME280;64877;50.994;13.650;2023-02-08T06:05:32;102141.91;;;-7.30;74.77
76132;BME280;64877;50.994;13.650;2023-02-08T06:07:57;102155.38;;;-7.45;75.52
76132;BME280;64877;50.994;13.650;2023-02-08T06:10:23;102159.50;;;-7.51;76.19
76132;BME280;64877;50.994;13.650;2023-02-08T06:12:48;102162.34;;;-7.45;75.40
76132;BME280;64877;50.994;13.650;2023-02-08T06:15:13;102163.50;;;-7.37;74.59
76132;BME280;64877;50.994;13.650;2023-02-08T06:17:39;102156.34;;;-7.41;74.75
76132;BME280;64877;50.994;13.650;2023-02-08T06:20:05;102162.06;;;-7.53;75.01
76132;BME280;64877;50.994;13.650;2023-02-08T06:22:33;102164.97;;;-7.45;74.36
76132;BME280;64877;50.994;13.650;2023-02-08T06:24:58;102166.75;;;-7.44;73.89
76132;BME280;64877;50.994;13.650;2023-02-08T06:27:24;102162.81;;;-7.32;73.94
76132;BME280;64877;50.994;13.650;2023-02-08T06:29:49;102168.00;;;-7.35;74.01
76132;BME280;64877;50.994;13.650;2023-02-08T06:32:14;102178.19;;;-7.42;75.73
76132;BME280;64877;50.994;13.650;2023-02-08T06:34:40;102183.94;;;-7.52;75.88
76132;BME280;64877;50.994;13.650;2023-02-08T06:37:05;102172.09;;;-7.41;75.73
76132;BME280;64877;50.994;13.650;2023-02-08T06:39:31;102173.13;;;-7.38;75.95
76132;BME280;64877;50.994;13.650;2023-02-08T06:41:56;102171.72;;;-7.28;74.51
76132;BME280;64877;50.994;13.650;2023-02-08T06:44:22;102183.78;;;-7.33;73.41
76132;BME280;64877;50.994;13.650;2023-02-08T06:46:47;102176.34;;;-7.21;73.89
76132;BME280;64877;50.994;13.650;2023-02-08T06:49:13;102187.41;;;-7.30;74.17
76132;BME280;64877;50.994;13.650;2023-02-08T06:51:38;102178.75;;;-7.27;74.12
76132;BME280;64877;50.994;13.650;2023-02-08T06:54:04;102182.09;;;-7.31;74.28
76132;BME280;64877;50.994;13.650;2023-02-08T06:56:29;102191.31;;;-7.18;74.75
76132;BME280;64877;50.994;13.650;2023-02-08T06:58:55;102187.47;;;-7.03;74.02
76132;BME280;64877;50.994;13.650;2023-02-08T07:01:21;102189.41;;;-6.97;74.21
76132;BME280;64877;50.994;13.650;2023-02-08T07:03:46;102188.81;;;-6.90;72.99
76132;BME280;64877;50.994;13.650;2023-02-08T07:06:13;102194.59;;;-6.74;73.37
76132;BME280;64877;50.994;13.650;2023-02-08T07:08:38;102188.75;;;-6.66;74.59
76132;BME280;64877;50.994;13.650;2023-02-08T07:11:08;102187.75;;;-6.42;73.68
76132;BME280;64877;50.994;13.650;2023-02-08T07:13:35;102192.69;;;-6.52;73.17
76132;BME280;64877;50.994;13.650;2023-02-08T07:16:01;102199.34;;;-6.09;72.09
76132;BME280;64877;50.994;13.650;2023-02-08T07:18:27;102188.38;;;-5.95;72.53
76132;BME280;64877;50.994;13.650;2023-02-08T07:20:52;102186.78;;;-5.59;72.49
76132;BME280;64877;50.994;13.650;2023-02-08T07:23:17;102190.09;;;-5.36;72.77
76132;BME280;64877;50.994;13.650;2023-02-08T07:25:43;102183.53;;;-5.50;72.05
76132;BME280;64877;50.994;13.650;2023-02-08T07:28:10;102185.50;;;-5.11;72.56
76132;BME280;64877;50.994;13.650;2023-02-08T07:30:35;102174.56;;;-5.27;71.57
76132;BME280;64877;50.994;13.650;2023-02-08T07:33:00;102169.75;;;-4.75;71.80
76132;BME280;64877;50.994;13.650;2023-02-08T07:35:26;102173.78;;;-4.55;68.89
76132;BME280;64877;50.994;13.650;2023-02-08T07:37:51;102169.84;;;-4.72;68.66
76132;BME280;64877;50.994;13.650;2023-02-08T07:40:17;102167.25;;;-4.71;68.78
76132;BME280;64877;50.994;13.650;2023-02-08T07:42:42;102169.97;;;-4.31;68.88
76132;BME280;64877;50.994;13.650;2023-02-08T07:45:07;102168.53;;;-4.17;68.91
76132;BME280;64877;50.994;13.650;2023-02-08T07:47:33;102175.84;;;-4.05;69.09
76132;BME280;64877;50.994;13.650;2023-02-08T07:49:58;102168.25;;;-3.92;68.17
76132;BME280;64877;50.994;13.650;2023-02-08T07:52:23;102170.47;;;-3.69;67.25
76132;BME280;64877;50.994;13.650;2023-02-08T07:54:49;102165.66;;;-3.48;66.96
76132;BME280;64877;50.994;13.650;2023-02-08T07:57:14;102159.41;;;-3.51;65.11
76132;BME280;64877;50.994;13.650;2023-02-08T07:59:45;102163.69;;;-3.58;64.79
76132;BME280;64877;50.994;13.650;2023-02-08T08:02:13;102162.19;;;-3.44;65.31
76132;BME280;64877;50.994;13.650;2023-02-08T08:04:39;102166.38;;;-3.55;64.54
76132;BME280;64877;50.994;13.650;2023-02-08T08:07:04;102161.34;;;-3.43;64.78
76132;BME280;64877;50.994;13.650;2023-02-08T08:09:29;102164.16;;;-3.33;64.76
76132;BME280;64877;50.994;13.650;2023-02-08T08:11:55;102169.69;;;-3.21;65.89
76132;BME280;64877;50.994;13.650;2023-02-08T08:14:20;102164.09;;;-2.91;64.82
76132;BME280;64877;50.994;13.650;2023-02-08T08:16:45;102169.47;;;-2.87;65.00
76132;BME280;64877;50.994;13.650;2023-02-08T08:19:11;102170.63;;;-2.69;64.13
76132;BME280;64877;50.994;13.650;2023-02-08T08:21:36;102164.41;;;-2.73;64.82
76132;BME280;64877;50.994;13.650;2023-02-08T08:24:02;102167.53;;;-2.44;64.01
76132;BME280;64877;50.994;13.650;2023-02-08T08:26:27;102165.66;;;-2.51;63.61
76132;BME280;64877;50.994;13.650;2023-02-08T08:28:53;102169.66;;;-2.21;62.25
76132;BME280;64877;50.994;13.650;2023-02-08T08:31:21;102167.00;;;-2.21;61.56
76132;BME280;64877;50.994;13.650;2023-02-08T08:33:47;102168.47;;;-2.40;62.88
76132;BME280;64877;50.994;13.650;2023-02-08T08:36:13;102168.25;;;-1.98;62.70
76132;BME280;64877;50.994;13.650;2023-02-08T08:38:38;102170.28;;;-1.78;61.82
76132;BME280;64877;50.994;13.650;2023-02-08T08:41:13;102163.53;;;-1.53;60.84
76132;BME280;64877;50.994;13.650;2023-02-08T08:43:39;102160.16;;;-1.40;60.40
76132;BME280;64877;50.994;13.650;2023-02-08T08:46:05;102159.53;;;-1.18;60.75
76132;BME280;64877;50.994;13.650;2023-02-08T08:48:32;102155.19;;;-1.11;60.89
76132;BME280;64877;50.994;13.650;2023-02-08T08:50:58;102162.59;;;-0.80;60.07
76132;BME280;64877;50.994;13.650;2023-02-08T08:53:23;102156.22;;;-0.97;60.88
76132;BME280;64877;50.994;13.650;2023-02-08T08:55:49;102151.41;;;-0.43;64.00
76132;BME280;64877;50.994;13.650;2023-02-08T08:58:15;102152.53;;;-0.08;64.52
76132;BME280;64877;50.994;13.650;2023-02-08T09:00:40;102146.31;;;-0.13;59.39
76132;BME280;64877;50.994;13.650;2023-02-08T09:03:05;102154.34;;;-0.02;59.40
76132;BME280;64877;50.994;13.650;2023-02-08T09:05:31;102147.09;;;-0.28;59.15
76132;BME280;64877;50.994;13.650;2023-02-08T09:07:56;102146.00;;;-0.54;59.90
76132;BME280;64877;50.994;13.650;2023-02-08T09:10:22;102149.84;;;-0.12;59.28
76132;BME280;64877;50.994;13.650;2023-02-08T09:12:47;102151.69;;;-0.02;58.85
76132;BME280;64877;50.994;13.650;2023-02-08T09:15:12;102154.38;;;0.04;59.27
76132;BME280;64877;50.994;13.650;2023-02-08T09:17:38;102147.41;;;0.29;59.32
76132;BME280;64877;50.994;13.650;2023-02-08T09:20:04;102149.22;;;0.32;59.30
76132;BME280;64877;50.994;13.650;2023-02-08T09:22:29;102152.78;;;0.38;60.10
76132;BME280;64877;50.994;13.650;2023-02-08T09:24:55;102148.31;;;0.30;59.95
76132;BME280;64877;50.994;13.650;2023-02-08T09:27:20;102143.06;;;0.49;59.13
76132;BME280;64877;50.994;13.650;2023-02-08T09:29:45;102140.47;;;0.63;59.25
76132;BME280;64877;50.994;13.650;2023-02-08T09:32:11;102147.56;;;0.64;59.64
76132;BME280;64877;50.994;13.650;2023-02-08T09:34:36;102153.72;;;0.51;59.54
76132;BME280;64877;50.994;13.650;2023-02-08T09:37:02;102141.34;;;0.58;60.24
76132;BME280;64877;50.994;13.650;2023-02-08T09:39:27;102155.47;;;0.47;60.54
76132;BME280;64877;50.994;13.650;2023-02-08T09:42:09;102158.19;;;0.58;61.76
76132;BME280;64877;50.994;13.650;2023-02-08T09:47:26;102150.31;;;0.96;58.31
76132;BME280;64877;50.994;13.650;2023-02-08T09:50:00;102144.97;;;0.87;57.35
76132;BME280;64877;50.994;13.650;2023-02-08T09:55:18;102146.81;;;1.16;56.52
76132;BME280;64877;50.994;13.650;2023-02-08T09:57:46;102145.94;;;1.21;55.52
76132;BME280;64877;50.994;13.650;2023-02-08T10:00:15;102160.03;;;0.81;56.38
76132;BME280;64877;50.994;13.650;2023-02-08T10:02:46;102152.13;;;1.19;55.44
76132;BME280;64877;50.994;13.650;2023-02-08T10:05:18;102161.03;;;1.45;55.15
76132;BME280;64877;50.994;13.650;2023-02-08T10:07:44;102154.81;;;1.69;54.45
76132;BME280;64877;50.994;13.650;2023-02-08T10:10:23;102148.50;;;2.13;52.63
76132;BME280;64877;50.994;13.650;2023-02-08T10:13:17;102136.56;;;2.97;51.11
76132;BME280;64877;50.994;13.650;2023-02-08T10:15:59;102129.44;;;4.02;47.61
76132;BME280;64877;50.994;13.650;2023-02-08T10:23:45;102122.28;;;4.79;44.81
76132;BME280;64877;50.994;13.650;2023-02-08T10:28:55;102108.00;;;5.37;44.37
76132;BME280;64877;50.994;13.650;2023-02-08T10:34:44;102108.84;;;5.39;43.60
76132;BME280;64877;50.994;13.650;2023-02-08T10:37:18;102104.88;;;5.62;43.54
76132;BME280;64877;50.994;13.650;2023-02-08T10:39:44;102095.44;;;6.37;42.72
76132;BME280;64877;50.994;13.650;2023-02-08T10:42:19;102087.97;;;6.91;41.05
76132;BME280;64877;50.994;13.650;2023-02-08T10:47:45;102081.06;;;7.87;38.25
76132;BME280;64877;50.994;13.650;2023-02-08T10:50:33;102076.06;;;7.39;39.22
76132;BME280;64877;50.994;13.650;2023-02-08T10:52:59;102076.31;;;6.91;39.81
76132;BME280;64877;50.994;13.650;2023-02-08T10:55:24;102077.63;;;5.86;41.21
76132;BME280;64877;50.994;13.650;2023-02-08T10:57:54;102085.66;;;4.81;44.23
76132;BME280;64877;50.994;13.650;2023-02-08T11:00:30;102085.13;;;3.81;47.19
76132;BME280;64877;50.994;13.650;2023-02-08T11:02:59;102083.16;;;3.04;48.65
76132;BME280;64877;50.994;13.650;2023-02-08T11:05:34;102075.50;;;2.49;50.25
76132;BME280;64877;50.994;13.650;2023-02-08T11:08:09;102073.88;;;2.13;51.75
76132;BME280;64877;50.994;13.650;2023-02-08T11:10:37;102069.47;;;2.06;52.66
76132;BME280;64877;50.994;13.650;2023-02-08T11:13:17;102068.63;;;1.92;52.76
76132;BME280;64877;50.994;13.650;2023-02-08T11:18:26;102056.16;;;2.01;53.46
76132;BME280;64877;50.994;13.650;2023-02-08T11:20:55;102064.16;;;2.03;54.15
76132;BME280;64877;50.994;13.650;2023-02-08T11:23:28;102066.00;;;1.81;54.50
76132;BME280;64877;50.994;13.650;2023-02-08T11:25:54;102063.34;;;1.81;53.86
76132;BME280;64877;50.994;13.650;2023-02-08T11:28:36;102070.47;;;1.64;54.67
76132;BME280;64877;50.994;13.650;2023-02-08T11:31:13;102079.38;;;1.41;55.10
76132;BME280;64877;50.994;13.650;2023-02-08T11:34:00;102078.47;;;1.53;55.59
76132;BME280;64877;50.994;13.650;2023-02-08T11:36:26;102068.72;;;1.38;55.96
76132;BME280;64877;50.994;13.650;2023-02-08T11:38:52;102074.06;;;1.44;56.23
76132;BME280;64877;50.994;13.650;2023-02-08T11:41:19;102073.19;;;1.32;55.76
76132;BME280;64877;50.994;13.650;2023-02-08T11:44:13;102073.19;;;1.30;56.37
76132;BME280;64877;50.994;13.650;2023-02-08T11:46:45;102074.94;;;1.42;55.52
76132;BME280;64877;50.994;13.650;2023-02-08T11:49:39;102064.28;;;1.39;55.27
76132;BME280;64877;50.994;13.650;2023-02-08T11:52:18;102062.53;;;1.41;55.12
76132;BME280;64877;50.994;13.650;2023-02-08T11:54:44;102069.63;;;1.31;56.74
76132;BME280;64877;50.994;13.650;2023-02-08T11:59:47;102066.09;;;1.40;55.64
76132;BME280;64877;50.994;13.650;2023-02-08T12:04:52;102068.75;;;1.40;55.30
76132;BME280;64877;50.994;13.650;2023-02-08T12:13:01;102066.06;;;1.46;54.76
76132;BME280;64877;50.994;13.650;2023-02-08T12:15:48;102066.06;;;1.46;54.44
76132;BME280;64877;50.994;13.650;2023-02-08T12:21:23;102062.53;;;1.41;55.57
76132;BME280;64877;50.994;13.650;2023-02-08T12:29:41;102041.25;;;1.25;54.33
76132;BME280;64877;50.994;13.650;2023-02-08T12:52:43;102056.34;;;1.07;55.28
76132;BME280;64877;50.994;13.650;2023-02-08T12:55:22;102070.50;;;0.89;55.62
76132;BME280;64877;50.994;13.650;2023-02-08T12:57:52;102045.69;;;0.93;54.90
76132;BME280;64877;50.994;13.650;2023-02-08T13:00:22;102053.66;;;0.82;55.33
76132;BME280;64877;50.994;13.650;2023-02-08T13:03:05;102049.22;;;0.89;55.38
76132;BME280;64877;50.994;13.650;2023-02-08T13:05:38;102048.31;;;0.73;55.65
76132;BME280;64877;50.994;13.650;2023-02-08T13:08:23;102043.88;;;0.67;56.13
76132;BME280;64877;50.994;13.650;2023-02-08T13:10:56;102052.78;;;0.75;56.21
76132;BME280;64877;50.994;13.650;2023-02-08T13:13:26;102032.38;;;0.76;56.32
76132;BME280;64877;50.994;13.650;2023-02-08T13:16:01;102047.44;;;0.66;55.69
76132;BME280;64877;50.994;13.650;2023-02-08T13:18:40;102037.69;;;0.62;55.59
76132;BME280;64877;50.994;13.650;2023-02-08T13:21:12;102029.69;;;0.59;56.35
76132;BME280;64877;50.994;13.650;2023-02-08T13:23:48;102021.72;;;0.68;56.42
76132;BME280;64877;50.994;13.650;2023-02-08T13:26:30;102013.78;;;0.70;55.79
76132;BME280;64877;50.994;13.650;2023-02-08T13:28:58;102013.75;;;0.67;55.86
76132;BME280;64877;50.994;13.650;2023-02-08T13:31:38;102018.16;;;0.57;56.41
76132;BME280;64877;50.994;13.650;2023-02-08T13:34:12;102008.44;;;0.56;56.03
76132;BME280;64877;50.994;13.650;2023-02-08T13:36:41;102005.75;;;0.48;56.02
76132;BME280;64877;50.994;13.650;2023-02-08T13:39:36;101996.88;;;0.42;56.35
76132;BME280;64877;50.994;13.650;2023-02-08T13:42:05;101988.91;;;0.52;56.37
76132;BME280;64877;50.994;13.650;2023-02-08T13:44:39;101997.78;;;0.56;56.91
76132;BME280;64877;50.994;13.650;2023-02-08T13:47:06;101990.69;;;0.49;56.61
76132;BME280;64877;50.994;13.650;2023-02-08T13:49:50;101990.69;;;0.46;56.52
76132;BME280;64877;50.994;13.650;2023-02-08T14:03:31;102003.09;;;0.42;56.51
76132;BME280;64877;50.994;13.650;2023-02-08T14:06:16;102002.19;;;0.39;56.78
76132;BME280;64877;50.994;13.650;2023-02-08T14:08:54;101997.75;;;0.48;56.63
76132;BME280;64877;50.994;13.650;2023-02-08T14:14:16;102000.44;;;0.56;56.27
76132;BME280;64877;50.994;13.650;2023-02-08T14:16:45;102005.75;;;0.53;55.75
76132;BME280;64877;50.994;13.650;2023-02-08T14:22:04;102005.78;;;0.56;55.28
76132;BME280;64877;50.994;13.650;2023-02-08T14:24:41;101988.06;;;0.55;55.17
76132;BME280;64877;50.994;13.650;2023-02-08T14:27:36;101996.88;;;0.54;55.16
76132;BME280;64877;50.994;13.650;2023-02-08T14:30:06;101990.69;;;0.50;55.01
76132;BME280;64877;50.994;13.650;2023-02-08T14:32:36;101990.69;;;0.52;54.54
76132;BME280;64877;50.994;13.650;2023-02-08T14:37:37;101987.16;;;0.45;54.65
76132;BME280;64877;50.994;13.650;2023-02-08T14:42:58;101977.41;;;0.52;54.58
76132;BME280;64877;50.994;13.650;2023-02-08T14:45:36;101979.16;;;0.44;54.60
76132;BME280;64877;50.994;13.650;2023-02-08T14:48:23;101982.72;;;0.52;55.21
76132;BME280;64877;50.994;13.650;2023-02-08T14:53:50;101989.78;;;0.44;55.41
76132;BME280;64877;50.994;13.650;2023-02-08T14:58:50;101981.78;;;0.33;56.32